Okay, Oklahoma
Current Conditions -  °F | °C
As of 2:53 PM on Wednesday 17 Dec 2014 (Local Time) from KMKO Reporting Station
Overcast Overcast  
Wind Chill: 28°   Ceiling: 6000
Heat Index: 36°   Visibility: 10mi
Dew Point: 33°   Wind: 13mph
Humidity: 89%   Direction: 90°E
Pressure: 30.18"   Gusts: NA
Location:  35.85°N, 95.32°W
Report Text: KMKO 172053Z AUTO 09011KT 10SM OVC060 02/01 A3018 RMK AO2 PRESFR SLP225 60004 T00220006 58032
Loading
Personal Weather Stations






























Interactive Weather Map New forecast layout! Learn more

10-Day Weather Forecast

Advertisements
Track Severe Weather on mobile